Météo Nord-Pas-de-Calais   La météo au plus près de chez vous

Station météorologique

Observations météo à Dunkerque (59183)

59183001 11 m Dernier relevé à 22:42
17.2°C
Humidité 67 % Vent 11.9 km/h 1026.1 hPa

Journée consultée

Samedi 5 Septembre 2026

Synthèse de la journée

Périodes de référence en UTC

Température maximale

20.6°C

à 17:00

06h 06h

Température minimale

16.8°C

à 08:24

18h 18h

Rafale maximale

41 km/h

à 04:48

00h 00h

Précipitations

0 mm

Cumul quotidien

06h 06h

Graphiques de la journée

Heure locale Réduire

Données détaillées

Relevés météo

Pas de 6 minutes Afficher les relevés infra-horaires
Relevés météo détaillés à Dunkerque pour le Samedi 5 Septembre 2026
Heure Température °C Point de rosée °C Humidité % Vent moyen (raf.), km/h Précipitations mm Pression hPa Nébulosité Octas
22:42 17.2 °C 11.7 °C 70 % 9 km/h (14 km/h) 0 mm0 mm 1026.1 hPa
22:36 17.5 °C 11.7 °C 69 % 9 km/h (14 km/h) 0 mm0 mm 1026.1 hPa
22:30 17.4 °C 11.9 °C 70 % 10 km/h (16 km/h) 0 mm0 mm 1026.2 hPa
22:24 17.6 °C 11.8 °C 69 % 11 km/h (15 km/h) 0 mm0 mm 1026.3 hPa
22:18 17.6 °C 11.8 °C 69 % 13 km/h (16 km/h) 0 mm0 mm 1026.2 hPa
22:12 17.5 °C 11.7 °C 69 % 13 km/h (17 km/h) 0 mm0 mm 1026.1 hPa
22:06 17.5 °C 11.5 °C 68 % 10 km/h (16 km/h) 0 mm0 mm 1026.1 hPa
22:00 17.6 °C 11.6 °C 68 % 10 km/h (14 km/h) 0 mm0 mm 1026 hPa
21:54 17.5 °C 11.7 °C 69 % 10 km/h (16 km/h) 0 mm0 mm 1025.9 hPa
21:48 17.6 °C 11.6 °C 68 % 11 km/h (15 km/h) 0 mm0 mm 1026 hPa
21:42 17.8 °C 11.6 °C 67 % 12 km/h (17 km/h) 0 mm0 mm 1026.1 hPa
21:36 17.8 °C 11.8 °C 68 % 13 km/h (17 km/h) 0 mm0 mm 1026 hPa
21:30 17.8 °C 11.4 °C 66 % 11 km/h (17 km/h) 0 mm0 mm 1025.9 hPa
21:24 17.9 °C 11.7 °C 67 % 11 km/h (16 km/h) 0 mm0 mm 1025.9 hPa
21:18 18.1 °C 11.4 °C 65 % 9 km/h (14 km/h) 0 mm0 mm 1026 hPa
21:12 18.5 °C 11.6 °C 64 % 6 km/h (10 km/h) 0 mm0 mm 1026 hPa
21:06 18.8 °C 12.8 °C 68 % 6 km/h (12 km/h) 0 mm0 mm 1025.9 hPa
21:00 18.7 °C 12.2 °C 66 % 9 km/h (14 km/h) 0 mm0 mm 1025.9 hPa
20:54 18.7 °C 12 °C 65 % 11 km/h (16 km/h) 0 mm0 mm 1025.8 hPa
20:48 18.8 °C 12.3 °C 66 % 13 km/h (18 km/h) 0 mm0 mm 1025.7 hPa
20:42 18.8 °C 11.8 °C 64 % 14 km/h (18 km/h) 0 mm0 mm 1025.7 hPa
20:36 18.9 °C 11.9 °C 64 % 14 km/h (18 km/h) 0 mm0 mm 1025.7 hPa
20:30 18.9 °C 11.9 °C 64 % 14 km/h (17 km/h) 0 mm0 mm 1025.7 hPa
20:24 18.9 °C 11.5 °C 62 % 12 km/h (17 km/h) 0 mm0 mm 1025.6 hPa
20:18 18.9 °C 11.5 °C 62 % 10 km/h (14 km/h) 0 mm0 mm 1025.7 hPa
20:12 19 °C 11.3 °C 61 % 9 km/h (14 km/h) 0 mm0 mm 1025.6 hPa
20:06 19.2 °C 11.2 °C 60 % 10 km/h (16 km/h) 0 mm0 mm 1025.6 hPa
20:00 19.3 °C 11.3 °C 60 % 12 km/h (17 km/h) 0 mm0 mm 1025.6 hPa
19:54 19.4 °C 11.2 °C 59 % 13 km/h (18 km/h) 0 mm0 mm 1025.7 hPa
19:48 19.5 °C 11.5 °C 60 % 12 km/h (18 km/h) 0 mm0 mm 1025.8 hPa
19:42 19.5 °C 11.5 °C 60 % 12 km/h (16 km/h) 0 mm0 mm 1025.7 hPa
19:36 19.7 °C 11.5 °C 59 % 11 km/h (15 km/h) 0 mm0 mm 1025.6 hPa
19:30 19.7 °C 11.2 °C 58 % 12 km/h (16 km/h) 0 mm0 mm 1025.7 hPa
19:24 19.7 °C 11.2 °C 58 % 12 km/h (16 km/h) 0 mm0 mm 1025.7 hPa
19:18 19.7 °C 11.2 °C 58 % 11 km/h (15 km/h) 0 mm0 mm 1025.7 hPa
19:12 19.8 °C 11.3 °C 58 % 12 km/h (15 km/h) 0 mm0 mm 1025.7 hPa
19:06 19.8 °C 11 °C 57 % 13 km/h (16 km/h) 0 mm0 mm 1025.6 hPa
19:00 20 °C 11.5 °C 58 % 12 km/h (16 km/h) 0 mm0 mm 1025.5 hPa
18:54 19.9 °C 11.4 °C 58 % 13 km/h (18 km/h) 0 mm0 mm 1025.5 hPa
18:48 20.1 °C 11.8 °C 59 % 13 km/h (18 km/h) 0 mm0 mm 1025.5 hPa
18:42 20 °C 11.7 °C 59 % 14 km/h (19 km/h) 0 mm0 mm 1025.5 hPa
18:36 19.9 °C 11.9 °C 60 % 14 km/h (19 km/h) 0 mm0 mm 1025.5 hPa
18:30 20.1 °C 11.6 °C 58 % 14 km/h (18 km/h) 0 mm0 mm 1025.6 hPa
18:24 20 °C 11.5 °C 58 % 15 km/h (20 km/h) 0 mm0 mm 1025.6 hPa
18:18 20.3 °C 12 °C 59 % 15 km/h (20 km/h) 0 mm0 mm 1025.6 hPa
18:12 20.3 °C 11.8 °C 58 % 14 km/h (19 km/h) 0 mm0 mm 1025.7 hPa
18:06 20.4 °C 11.9 °C 58 % 13 km/h (18 km/h) 0 mm0 mm 1025.6 hPa
18:00 20.1 °C 11.6 °C 58 % 13 km/h (17 km/h) 0 mm0 mm 1025.5 hPa
17:54 20 °C 11.5 °C 58 % 13 km/h (17 km/h) 0 mm0 mm 1025.6 hPa
17:48 20 °C 11.5 °C 58 % 14 km/h (20 km/h) 0 mm0 mm 1025.6 hPa
17:42 20 °C 11.5 °C 58 % 16 km/h (22 km/h) 0 mm0 mm 1025.5 hPa
17:36 20.2 °C 10.9 °C 55 % 17 km/h (22 km/h) 0 mm0 mm 1025.6 hPa
17:30 20.3 °C 11.2 °C 56 % 18 km/h (22 km/h) 0 mm0 mm 1025.5 hPa
17:24 20.4 °C 11.6 °C 57 % 17 km/h (22 km/h) 0 mm0 mm 1025.4 hPa
17:18 20.4 °C 11.1 °C 55 % 18 km/h (23 km/h) 0 mm0 mm 1025.5 hPa
17:12 20.4 °C 11.3 °C 56 % 18 km/h (23 km/h) 0 mm0 mm 1025.5 hPa
17:06 20.4 °C 11.9 °C 58 % 17 km/h (22 km/h) 0 mm0 mm 1025.4 hPa
17:00 20.5 °C 11.7 °C 57 % 15 km/h (21 km/h) 0 mm0 mm 1025.3 hPa
16:54 20.5 °C 11.1 °C 55 % 15 km/h (20 km/h) 0 mm0 mm 1025.4 hPa
16:48 20.5 °C 11.7 °C 57 % 15 km/h (19 km/h) 0 mm0 mm 1025.4 hPa
16:42 20.4 °C 11.6 °C 57 % 15 km/h (20 km/h) 0 mm0 mm 1025.3 hPa
16:36 20.4 °C 11.9 °C 58 % 14 km/h (19 km/h) 0 mm0 mm 1025.3 hPa
16:30 20.3 °C 11.5 °C 57 % 14 km/h (18 km/h) 0 mm0 mm 1025.3 hPa
16:24 20.3 °C 12 °C 59 % 13 km/h (19 km/h) 0 mm0 mm 1025.3 hPa
16:18 19.9 °C 11.9 °C 60 % 13 km/h (21 km/h) 0 mm0 mm 1025.2 hPa
16:12 20 °C 11.5 °C 58 % 13 km/h (21 km/h) 0 mm0 mm 1025.3 hPa
16:06 19.9 °C 11.4 °C 58 % 13 km/h (16 km/h) 0 mm0 mm 1025.2 hPa
16:00 20.2 °C 11.7 °C 58 % 13 km/h (17 km/h) 0 mm0 mm 1025.2 hPa
15:54 20.5 °C 12.2 °C 59 % 12 km/h (17 km/h) 0 mm0 mm 1025.2 hPa
15:48 20.1 °C 12.3 °C 61 % 13 km/h (18 km/h) 0 mm0 mm 1025.2 hPa
15:42 20 °C 11.5 °C 58 % 12 km/h (18 km/h) 0 mm0 mm 1025.2 hPa
15:36 20.2 °C 11.4 °C 57 % 13 km/h (18 km/h) 0 mm0 mm 1025.2 hPa
15:30 20.1 °C 11.3 °C 57 % 13 km/h (18 km/h) 0 mm0 mm 1025.2 hPa
15:24 20.1 °C 10.8 °C 55 % 14 km/h (18 km/h) 0 mm0 mm 1025.2 hPa
15:18 20.4 °C 11.3 °C 56 % 13 km/h (17 km/h) 0 mm0 mm 1025.1 hPa
15:12 20.1 °C 11.6 °C 58 % 14 km/h (20 km/h) 0 mm0 mm 1025.1 hPa
15:06 20 °C 11.5 °C 58 % 14 km/h (20 km/h) 0 mm0 mm 1025.2 hPa
15:00 19.8 °C 11.3 °C 58 % 14 km/h (20 km/h) 0 mm0 mm 1025.2 hPa
14:54 19.8 °C 11.6 °C 59 % 14 km/h (20 km/h) 0 mm0 mm 1025.2 hPa
14:48 19.7 °C 11.7 °C 60 % 14 km/h (19 km/h) 0 mm0 mm 1025.2 hPa
14:42 19.5 °C 11.3 °C 59 % 14 km/h (19 km/h) 0 mm0 mm 1025.1 hPa
14:36 19.7 °C 11.7 °C 60 % 13 km/h (19 km/h) 0 mm0 mm 1025 hPa
14:30 19.6 °C 12.1 °C 62 % 13 km/h (20 km/h) 0 mm0 mm 1024.9 hPa
14:24 19.5 °C 12 °C 62 % 14 km/h (21 km/h) 0 mm0 mm 1024.8 hPa
14:18 19.6 °C 12.4 °C 63 % 14 km/h (21 km/h) 0 mm0 mm 1024.8 hPa
14:12 19.7 °C 12.5 °C 63 % 14 km/h (21 km/h) 0 mm0 mm 1024.8 hPa
14:06 19.5 °C 12 °C 62 % 15 km/h (19 km/h) 0 mm0 mm 1024.8 hPa
14:00 19.2 °C 12 °C 63 % 17 km/h (23 km/h) 0 mm0 mm 1024.7 hPa 5 Octas
13:54 19.4 °C 12.4 °C 64 % 16 km/h (23 km/h) 0 mm0 mm 1024.7 hPa
13:48 19.2 °C 11.7 °C 62 % 15 km/h (21 km/h) 0 mm0 mm 1024.6 hPa
13:42 19 °C 11.6 °C 62 % 15 km/h (21 km/h) 0 mm0 mm 1024.6 hPa
13:36 19.1 °C 12.4 °C 65 % 14 km/h (20 km/h) 0 mm0 mm 1024.5 hPa
13:30 19.1 °C 12.4 °C 65 % 15 km/h (21 km/h) 0 mm0 mm 1024.4 hPa
13:24 18.9 °C 11.9 °C 64 % 17 km/h (22 km/h) 0 mm0 mm 1024.4 hPa
13:18 18.9 °C 12.4 °C 66 % 17 km/h (22 km/h) 0 mm0 mm 1024.5 hPa
13:12 18.8 °C 11.8 °C 64 % 16 km/h (22 km/h) 0 mm0 mm 1024.5 hPa
13:06 18.9 °C 12.6 °C 67 % 17 km/h (23 km/h) 0 mm0 mm 1024.4 hPa
13:00 18.8 °C 12.3 °C 66 % 17 km/h (22 km/h) 0 mm0 mm 1024.4 hPa
12:54 18.6 °C 11.7 °C 64 % 17 km/h (23 km/h) 0 mm0 mm 1024.3 hPa
12:48 18.7 °C 12 °C 65 % 17 km/h (23 km/h) 0 mm0 mm 1024.3 hPa
12:42 18.7 °C 12.7 °C 68 % 17 km/h (23 km/h) 0 mm0 mm 1024.2 hPa
12:36 18.5 °C 12.5 °C 68 % 18 km/h (23 km/h) 0 mm0 mm 1024.2 hPa
12:30 18.5 °C 12.5 °C 68 % 17 km/h (23 km/h) 0 mm0 mm 1024.2 hPa
12:24 18.7 °C 12.4 °C 67 % 17 km/h (23 km/h) 0 mm0 mm 1024.1 hPa
12:18 18.6 °C 12.3 °C 67 % 18 km/h (24 km/h) 0 mm0 mm 1024.1 hPa
12:12 18.5 °C 12.9 °C 70 % 18 km/h (24 km/h) 0 mm0 mm 1024 hPa
12:06 18.5 °C 12.7 °C 69 % 18 km/h (23 km/h) 0 mm0 mm 1024 hPa
12:00 18.3 °C 12.5 °C 69 % 18 km/h (23 km/h) 0 mm0 mm 1023.9 hPa
11:54 18.3 °C 12.7 °C 70 % 18 km/h (24 km/h) 0 mm0 mm 1023.8 hPa
11:48 18.2 °C 12.6 °C 70 % 18 km/h (24 km/h) 0 mm0 mm 1023.8 hPa
11:42 18 °C 12.4 °C 70 % 17 km/h (23 km/h) 0 mm0 mm 1023.7 hPa
11:36 18.1 °C 12.5 °C 70 % 17 km/h (24 km/h) 0 mm0 mm 1023.6 hPa
11:30 18.1 °C 12.8 °C 71 % 20 km/h (26 km/h) 0 mm0 mm 1023.6 hPa
11:24 18.2 °C 13.1 °C 72 % 18 km/h (24 km/h) 0 mm0 mm 1023.6 hPa
11:18 17.9 °C 12.6 °C 71 % 18 km/h (23 km/h) 0 mm0 mm 1023.5 hPa
11:12 17.9 °C 12.6 °C 71 % 19 km/h (26 km/h) 0 mm0 mm 1023.4 hPa
11:06 18 °C 13.1 °C 73 % 20 km/h (26 km/h) 0 mm0 mm 1023.4 hPa
11:00 17.9 °C 13 °C 73 % 21 km/h (26 km/h) 0 mm0 mm 1023.4 hPa
10:54 17.9 °C 12.8 °C 72 % 22 km/h (29 km/h) 0 mm0 mm 1023.3 hPa
10:48 17.9 °C 12.8 °C 72 % 23 km/h (29 km/h) 0 mm0 mm 1023.2 hPa
10:42 18 °C 13.1 °C 73 % 21 km/h (28 km/h) 0 mm0 mm 1023.2 hPa
10:36 17.8 °C 13.3 °C 75 % 22 km/h (28 km/h) 0 mm0 mm 1023.2 hPa
10:30 17.8 °C 12.9 °C 73 % 21 km/h (29 km/h) 0 mm0 mm 1023 hPa
10:24 17.7 °C 12.8 °C 73 % 22 km/h (29 km/h) 0 mm0 mm 1022.9 hPa
10:18 17.7 °C 13 °C 74 % 21 km/h (28 km/h) 0 mm0 mm 1022.8 hPa
10:12 17.6 °C 12.9 °C 74 % 20 km/h (28 km/h) 0 mm0 mm 1022.8 hPa
10:06 17.6 °C 13.3 °C 76 % 21 km/h (27 km/h) 0 mm0 mm 1022.7 hPa
10:00 17.5 °C 13.2 °C 76 % 22 km/h (28 km/h) 0 mm0 mm 1022.6 hPa
09:54 17.4 °C 13.3 °C 77 % 22 km/h (28 km/h) 0 mm0 mm 1022.6 hPa
09:48 17.4 °C 13.5 °C 78 % 22 km/h (28 km/h) 0 mm0 mm 1022.5 hPa
09:42 17.2 °C 13.1 °C 77 % 21 km/h (28 km/h) 0 mm0 mm 1022.4 hPa
09:36 17.2 °C 13.1 °C 77 % 22 km/h (29 km/h) 0 mm0 mm 1022.4 hPa
09:30 17.2 °C 13.3 °C 78 % 23 km/h (31 km/h) 0 mm0 mm 1022.4 hPa
09:24 17 °C 12.9 °C 77 % 21 km/h (31 km/h) 0 mm0 mm 1022.3 hPa
09:18 17 °C 12.9 °C 77 % 22 km/h (29 km/h) 0 mm0 mm 1022.2 hPa
09:12 17 °C 12.9 °C 77 % 23 km/h (32 km/h) 0 mm0 mm 1022.2 hPa
09:06 17 °C 12.9 °C 77 % 23 km/h (32 km/h) 0 mm0 mm 1022.1 hPa
09:00 17 °C 12.9 °C 77 % 22 km/h (31 km/h) 0 mm0 mm 1022 hPa
08:54 17 °C 12.7 °C 76 % 22 km/h (31 km/h) 0 mm0 mm 1021.9 hPa
08:48 17 °C 12.9 °C 77 % 23 km/h (31 km/h) 0 mm0 mm 1021.9 hPa
08:42 16.9 °C 12.6 °C 76 % 23 km/h (31 km/h) 0 mm0 mm 1021.8 hPa
08:36 17.1 °C 13 °C 77 % 23 km/h (32 km/h) 0 mm0 mm 1021.7 hPa
08:30 16.9 °C 12.6 °C 76 % 23 km/h (31 km/h) 0 mm0 mm 1021.6 hPa
08:24 16.8 °C 12.5 °C 76 % 23 km/h (31 km/h) 0 mm0 mm 1021.6 hPa
08:18 17.1 °C 13.2 °C 78 % 24 km/h (33 km/h) 0 mm0 mm 1021.6 hPa
08:12 16.9 °C 12.4 °C 75 % 26 km/h (34 km/h) 0 mm0 mm 1021.6 hPa
08:06 16.9 °C 12.4 °C 75 % 26 km/h (34 km/h) 0 mm0 mm 1021.6 hPa
08:00 17 °C 12.3 °C 74 % 25 km/h (32 km/h) 0 mm0 mm 1021.4 hPa
07:54 17 °C 12.5 °C 75 % 25 km/h (32 km/h) 0 mm0 mm 1021.4 hPa
07:48 17 °C 12.3 °C 74 % 26 km/h (34 km/h) 0 mm0 mm 1021.2 hPa
07:42 17 °C 12.3 °C 74 % 28 km/h (38 km/h) 0 mm0 mm 1021.2 hPa
07:36 17 °C 12.3 °C 74 % 27 km/h (38 km/h) 0 mm0 mm 1021.2 hPa
07:30 17.1 °C 12.6 °C 75 % 26 km/h (37 km/h) 0 mm0 mm 1021 hPa
07:24 17 °C 12.3 °C 74 % 29 km/h (40 km/h) 0 mm0 mm 1020.9 hPa
07:18 17.2 °C 12.5 °C 74 % 28 km/h (40 km/h) 0 mm0 mm 1020.8 hPa
07:12 17.1 °C 12.4 °C 74 % 29 km/h (39 km/h) 0 mm0 mm 1020.8 hPa
07:06 17.2 °C 12.5 °C 74 % 30 km/h (39 km/h) 0 mm0 mm 1020.6 hPa
07:00 17.2 °C 12.3 °C 73 % 30 km/h (37 km/h) 0 mm0 mm 1020.5 hPa
06:54 17.3 °C 12.6 °C 74 % 29 km/h (37 km/h) 0 mm0 mm 1020.5 hPa
06:48 17.2 °C 12.1 °C 72 % 28 km/h (37 km/h) 0 mm0 mm 1020.5 hPa
06:42 17.3 °C 12.4 °C 73 % 28 km/h (38 km/h) 0 mm0 mm 1020.4 hPa
06:36 17.3 °C 12.2 °C 72 % 27 km/h (38 km/h) 0 mm0 mm 1020.1 hPa
06:30 17.4 °C 12.5 °C 73 % 28 km/h (40 km/h) 0 mm0 mm 1020.2 hPa
06:24 17.3 °C 12 °C 71 % 28 km/h (40 km/h) 0 mm0 mm 1020.1 hPa
06:18 17.4 °C 12.3 °C 72 % 30 km/h (40 km/h) 0 mm0 mm 1020 hPa
06:12 17.4 °C 12.3 °C 72 % 28 km/h (40 km/h) 0 mm0 mm 1020 hPa
06:06 17.4 °C 12.3 °C 72 % 27 km/h (37 km/h) 0 mm0 mm 1020 hPa
06:00 17.4 °C 12.1 °C 71 % 29 km/h (40 km/h) 0 mm0 mm 1019.9 hPa
05:54 17.5 °C 12 °C 70 % 29 km/h (37 km/h) 0 mm0 mm 1019.9 hPa
05:48 17.4 °C 12.1 °C 71 % 28 km/h (37 km/h) 0 mm0 mm 1019.8 hPa
05:42 17.5 °C 12 °C 70 % 28 km/h (37 km/h) 0 mm0 mm 1019.8 hPa
05:36 17.5 °C 12 °C 70 % 29 km/h (38 km/h) 0 mm0 mm 1019.7 hPa
05:30 17.4 °C 11.9 °C 70 % 27 km/h (36 km/h) 0 mm0 mm 1019.7 hPa
05:24 17.5 °C 12 °C 70 % 28 km/h (41 km/h) 0 mm0 mm 1019.7 hPa
05:18 17.5 °C 11.7 °C 69 % 32 km/h (41 km/h) 0 mm0 mm 1019.7 hPa
05:12 17.4 °C 11.9 °C 70 % 30 km/h (40 km/h) 0 mm0 mm 1019.6 hPa
05:06 17.5 °C 12 °C 70 % 27 km/h (39 km/h) 0 mm0 mm 1019.6 hPa
05:00 17.5 °C 11.7 °C 69 % 28 km/h (39 km/h) 0 mm0 mm 1019.5 hPa
04:54 17.6 °C 12.1 °C 70 % 28 km/h (41 km/h) 0 mm0 mm 1019.5 hPa
04:48 17.5 °C 11.7 °C 69 % 28 km/h (41 km/h) 0 mm0 mm 1019.4 hPa
04:42 17.6 °C 11.8 °C 69 % 28 km/h (36 km/h) 0 mm0 mm 1019.4 hPa
04:36 17.6 °C 11.8 °C 69 % 29 km/h (37 km/h) 0 mm0 mm 1019.3 hPa
04:30 17.5 °C 11.7 °C 69 % 28 km/h (37 km/h) 0 mm0 mm 1019.4 hPa
04:24 17.5 °C 11.7 °C 69 % 27 km/h (37 km/h) 0 mm0 mm 1019.4 hPa
04:18 17.6 °C 11.8 °C 69 % 29 km/h (38 km/h) 0 mm0 mm 1019.3 hPa
04:12 17.6 °C 11.4 °C 67 % 29 km/h (38 km/h) 0 mm0 mm 1019.2 hPa
04:06 17.8 °C 11.8 °C 68 % 29 km/h (38 km/h) 0 mm0 mm 1019.3 hPa
04:00 17.7 °C 11.3 °C 66 % 29 km/h (40 km/h) 0 mm0 mm 1019.2 hPa
03:54 17.7 °C 11.3 °C 66 % 27 km/h (40 km/h) 0 mm0 mm 1019.2 hPa
03:48 17.7 °C 11.3 °C 66 % 28 km/h (37 km/h) 0 mm0 mm 1019.2 hPa
03:42 17.7 °C 11.5 °C 67 % 28 km/h (37 km/h) 0 mm0 mm 1019.1 hPa
03:36 17.7 °C 11.9 °C 69 % 27 km/h (35 km/h) 0 mm0 mm 1019.1 hPa
03:30 17.7 °C 12.2 °C 70 % 26 km/h (35 km/h) 0 mm0 mm 1019.1 hPa
03:24 17.7 °C 12.4 °C 71 % 25 km/h (34 km/h) 0 mm0 mm 1019 hPa
03:18 17.8 °C 12 °C 69 % 27 km/h (35 km/h) 0 mm0 mm 1018.9 hPa
03:12 17.8 °C 11.8 °C 68 % 26 km/h (35 km/h) 0 mm0 mm 1019 hPa
03:06 17.8 °C 12.3 °C 70 % 24 km/h (34 km/h) 0 mm0 mm 1019 hPa
03:00 17.8 °C 12.5 °C 71 % 26 km/h (38 km/h) 0 mm0 mm 1019 hPa
02:54 17.7 °C 11.9 °C 69 % 27 km/h (36 km/h) 0 mm0 mm 1019 hPa
02:48 17.8 °C 12 °C 69 % 28 km/h (36 km/h) 0 mm0 mm 1019 hPa
02:42 17.9 °C 12.3 °C 70 % 28 km/h (39 km/h) 0 mm0 mm 1019 hPa
02:36 17.9 °C 11.7 °C 67 % 30 km/h (39 km/h) 0 mm0 mm 1019 hPa
02:30 17.9 °C 11.9 °C 68 % 30 km/h (39 km/h) 0 mm0 mm 1019 hPa
02:24 17.9 °C 12.3 °C 70 % 30 km/h (37 km/h) 0 mm0 mm 1019 hPa
02:18 18 °C 12.2 °C 69 % 30 km/h (37 km/h) 0 mm0 mm 1018.9 hPa
02:12 18.1 °C 12.1 °C 68 % 29 km/h (37 km/h) 0 mm0 mm 1018.8 hPa
02:06 18.1 °C 12.3 °C 69 % 30 km/h (37 km/h) 0 mm0 mm 1018.7 hPa
02:00 18.1 °C 11.9 °C 67 % 28 km/h (39 km/h) 0 mm0 mm 1018.8 hPa
01:54 18.2 °C 12.2 °C 68 % 26 km/h (35 km/h) 0 mm0 mm 1018.7 hPa
01:48 18.3 °C 12.1 °C 67 % 27 km/h (35 km/h) 0 mm0 mm 1018.7 hPa
01:42 18.2 °C 11.7 °C 66 % 28 km/h (36 km/h) 0 mm0 mm 1018.6 hPa
01:36 18.4 °C 11.9 °C 66 % 27 km/h (36 km/h) 0 mm0 mm 1018.5 hPa
01:30 18.4 °C 11.9 °C 66 % 28 km/h (39 km/h) 0 mm0 mm 1018.4 hPa
01:24 18.4 °C 11.7 °C 65 % 30 km/h (39 km/h) 0 mm0 mm 1018.4 hPa
01:18 18.4 °C 11.7 °C 65 % 28 km/h (39 km/h) 0 mm0 mm 1018.5 hPa
01:12 18.5 °C 11.6 °C 64 % 27 km/h (40 km/h) 0 mm0 mm 1018.5 hPa
01:06 18.7 °C 12.2 °C 66 % 28 km/h (40 km/h) 0 mm0 mm 1018.5 hPa
01:00 18.7 °C 11.7 °C 64 % 28 km/h (39 km/h) 0 mm0 mm 1018.5 hPa
00:54 18.7 °C 12 °C 65 % 28 km/h (39 km/h) 0 mm0 mm 1018.5 hPa
00:48 18.7 °C 12 °C 65 % 29 km/h (38 km/h) 0 mm0 mm 1018.5 hPa
00:42 18.8 °C 12.1 °C 65 % 30 km/h (39 km/h) 0 mm0 mm 1018.5 hPa
00:36 18.7 °C 11.3 °C 62 % 30 km/h (40 km/h) 0 mm0 mm 1018.3 hPa
00:30 18.7 °C 11.5 °C 63 % 31 km/h (40 km/h) 0 mm0 mm 1018.2 hPa
00:24 18.8 °C 11.8 °C 64 % 30 km/h (40 km/h) 0 mm0 mm 1018.2 hPa
00:18 18.9 °C 12.2 °C 65 % 30 km/h (40 km/h) 0 mm0 mm 1018.2 hPa
00:12 18.9 °C 11.9 °C 64 % 30 km/h (40 km/h) 0 mm0 mm 1018.2 hPa
00:06 18.9 °C 11.9 °C 64 % 30 km/h (41 km/h) 0 mm0 mm 1018.1 hPa
00:00 18.9 °C 12.4 °C 66 % 29 km/h (39 km/h) 0 mm0 mm 1018.1 hPa

Données via Météo-France

Relevés météo à Dunkerque

Cette page rassemble les observations de la station de Dunkerque : température, humidité, vent, précipitations et pression atmosphérique. Les graphiques facilitent le suivi de la journée, tandis que le tableau donne accès aux mesures horaires et infra-horaires disponibles.

Pour replacer ces mesures dans leur contexte, consultez la climatologie de Dunkerque ainsi que ses normales et records. Retrouvez aussi la carte des observations météo en temps réel.